createdAt,value
2019-02-15T00:00:37.230Z,28.50
2019-02-15T00:01:37.217Z,28.50
2019-02-15T00:02:37.241Z,28.50
2019-02-15T00:03:37.186Z,28.50
2019-02-15T00:04:37.173Z,28.50
2019-02-15T00:05:37.171Z,27.89
2019-02-15T00:06:37.151Z,28.20
2019-02-15T00:07:37.148Z,28.60
2019-02-15T00:08:37.169Z,28.60
2019-02-15T00:09:37.121Z,27.89
2019-02-15T00:10:37.109Z,27.89
2019-02-15T00:11:37.101Z,28.60
2019-02-15T00:12:37.082Z,28.20
2019-02-15T00:13:37.079Z,28.50
2019-02-15T00:14:37.233Z,27.89
2019-02-15T00:15:37.050Z,27.89
2019-02-15T00:16:37.038Z,28.09
2019-02-15T00:17:37.025Z,28.20
2019-02-15T00:18:37.019Z,28.09
2019-02-15T00:19:37.002Z,27.89
2019-02-15T00:20:37.100Z,28.50
2019-02-15T00:21:37.028Z,28.09
2019-02-15T00:22:36.987Z,28.70
2019-02-15T00:23:36.957Z,28.20
2019-02-15T00:24:36.951Z,28.09
2019-02-15T00:25:36.967Z,28.00
2019-02-15T00:26:36.919Z,27.89
2019-02-15T00:27:36.913Z,28.09
2019-02-15T00:28:48.587Z,28.70
2019-02-15T00:29:36.886Z,28.70
2019-02-15T00:30:36.878Z,28.70
2019-02-15T00:31:36.904Z,28.00
2019-02-15T00:32:36.863Z,28.70
2019-02-15T00:33:36.842Z,27.89
2019-02-15T00:34:36.828Z,28.70
2019-02-15T00:35:36.817Z,28.09
2019-02-15T00:36:36.809Z,28.40
2019-02-15T00:37:36.833Z,28.70
2019-02-15T00:38:36.783Z,28.70
2019-02-15T00:39:36.768Z,28.30
2019-02-15T00:40:36.762Z,27.89
2019-02-15T00:41:36.778Z,27.89
2019-02-15T00:42:36.734Z,28.70
2019-02-15T00:43:37.516Z,27.89
2019-02-15T00:44:37.513Z,27.89
2019-02-15T00:45:36.730Z,28.60
2019-02-15T00:46:36.704Z,28.60
2019-02-15T00:47:36.681Z,28.70
2019-02-15T00:48:36.667Z,27.89
2019-02-15T00:49:36.695Z,27.89
2019-02-15T00:50:36.646Z,27.89
2019-02-15T00:51:36.629Z,28.70
2019-02-15T00:52:36.623Z,28.60
2019-02-15T00:53:36.609Z,28.09
2019-02-15T00:54:36.596Z,28.60
2019-02-15T00:55:36.630Z,27.89
2019-02-15T00:56:36.580Z,28.09
2019-02-15T00:57:36.565Z,28.70
2019-02-15T00:58:36.549Z,28.90
2019-02-15T00:59:49.361Z,28.30
2019-02-15T01:00:36.533Z,28.60
2019-02-15T01:01:36.558Z,28.60
2019-02-15T01:02:36.507Z,27.89
2019-02-15T01:03:36.492Z,27.89
2019-02-15T01:04:36.480Z,28.09
2019-02-15T01:05:36.469Z,28.60
2019-02-15T01:06:36.549Z,27.89
2019-02-15T01:07:36.570Z,28.60
2019-02-15T01:08:36.455Z,28.60
2019-02-15T01:09:36.430Z,28.40
2019-02-15T01:10:36.416Z,28.09
2019-02-15T01:11:36.404Z,28.50
2019-02-15T01:12:36.393Z,28.09
2019-02-15T01:13:36.422Z,28.60
2019-02-15T01:14:36.369Z,27.89
2019-02-15T01:15:36.351Z,28.09
2019-02-15T01:16:36.365Z,28.70
2019-02-15T01:17:36.333Z,28.80
2019-02-15T01:18:36.321Z,28.20
2019-02-15T01:19:36.343Z,28.50
2019-02-15T01:20:36.295Z,28.60
2019-02-15T01:21:36.289Z,28.80
2019-02-15T01:22:36.276Z,28.30
2019-02-15T01:23:36.266Z,28.60
2019-02-15T01:24:36.251Z,28.70
2019-02-15T01:25:36.254Z,28.30
2019-02-15T01:26:36.234Z,28.80
2019-02-15T01:27:36.213Z,28.50
2019-02-15T01:28:36.311Z,28.60
2019-02-15T01:29:37.054Z,28.09
2019-02-15T01:30:48.136Z,28.09
2019-02-15T01:31:36.166Z,28.50
2019-02-15T01:32:36.162Z,28.60
2019-02-15T01:33:36.145Z,28.90
2019-02-15T01:34:36.137Z,28.60
2019-02-15T01:35:36.121Z,28.30
2019-02-15T01:36:36.143Z,28.60
2019-02-15T01:37:36.097Z,28.50
2019-02-15T01:38:36.095Z,28.60
2019-02-15T01:39:36.591Z,28.30
2019-02-15T01:40:36.068Z,28.09
2019-02-15T01:41:36.058Z,28.09
2019-02-15T01:42:36.075Z,28.70
2019-02-15T01:43:40.105Z,28.70
2019-02-15T01:44:36.020Z,28.70
2019-02-15T01:45:36.003Z,28.80
2019-02-15T01:46:36.000Z,28.80
2019-02-15T01:47:35.989Z,29.00
2019-02-15T01:48:36.012Z,28.90
2019-02-15T01:49:35.963Z,28.90
2019-02-15T01:50:35.956Z,28.60
2019-02-15T01:51:35.994Z,28.90
2019-02-15T01:52:36.589Z,28.90
2019-02-15T01:53:35.921Z,28.80
2019-02-15T01:54:35.944Z,28.80
2019-02-15T01:55:35.891Z,28.60
2019-02-15T01:56:35.883Z,28.70
2019-02-15T01:57:35.874Z,28.60
2019-02-15T01:58:35.858Z,28.60
2019-02-15T01:59:35.850Z,28.90
2019-02-15T02:00:35.874Z,28.30
2019-02-15T02:01:48.496Z,28.60
2019-02-15T02:02:35.818Z,28.70
2019-02-15T02:03:35.805Z,28.80
2019-02-15T02:04:35.790Z,28.60
2019-02-15T02:05:35.777Z,28.09
2019-02-15T02:06:35.804Z,28.50
2019-02-15T02:07:35.756Z,28.80
2019-02-15T02:08:35.745Z,28.60
2019-02-15T02:09:35.737Z,28.60
2019-02-15T02:10:35.722Z,28.80
2019-02-15T02:11:35.704Z,28.60
2019-02-15T02:12:35.915Z,28.60
2019-02-15T02:13:35.688Z,28.80
2019-02-15T02:14:35.771Z,28.60
2019-02-15T02:15:35.764Z,28.80
2019-02-15T02:16:38.676Z,28.70
2019-02-15T02:17:35.646Z,28.30
2019-02-15T02:18:35.636Z,28.70
2019-02-15T02:19:35.612Z,28.70
2019-02-15T02:20:35.607Z,28.60
2019-02-15T02:21:35.594Z,28.30
2019-02-15T02:22:35.579Z,28.60
2019-02-15T02:23:35.607Z,28.70
2019-02-15T02:24:35.568Z,28.70
2019-02-15T02:25:35.546Z,28.80
2019-02-15T02:26:35.539Z,28.80
2019-02-15T02:27:35.520Z,28.70
2019-02-15T02:28:35.509Z,28.70
2019-02-15T02:29:35.520Z,28.60
2019-02-15T02:30:35.495Z,28.80
2019-02-15T02:31:35.472Z,28.70
2019-02-15T02:32:47.759Z,28.70
2019-02-15T02:33:35.456Z,28.80
2019-02-15T02:34:35.496Z,28.70
2019-02-15T02:35:36.160Z,28.70
2019-02-15T02:36:35.421Z,28.80
2019-02-15T02:37:35.494Z,28.80
2019-02-15T02:38:35.445Z,28.80
2019-02-15T02:39:35.387Z,28.50
2019-02-15T02:40:35.404Z,28.80
2019-02-15T02:41:35.410Z,28.70
2019-02-15T02:42:35.358Z,28.50
2019-02-15T02:43:35.336Z,28.80
2019-02-15T02:44:35.322Z,28.80
2019-02-15T02:45:35.318Z,28.80
2019-02-15T02:46:35.304Z,28.70
2019-02-15T02:47:35.325Z,28.90
2019-02-15T02:48:35.278Z,28.80
2019-02-15T02:49:35.273Z,28.70
2019-02-15T02:50:35.254Z,28.30
2019-02-15T02:51:35.243Z,28.80
2019-02-15T02:52:35.240Z,28.60
2019-02-15T02:53:35.263Z,28.70
2019-02-15T02:54:35.214Z,28.70
2019-02-15T02:55:35.205Z,28.60
2019-02-15T02:56:35.190Z,28.70
2019-02-15T02:57:35.185Z,28.70
2019-02-15T02:58:35.170Z,28.80
2019-02-15T02:59:35.289Z,28.70
2019-02-15T03:00:35.359Z,28.30
2019-02-15T03:01:35.661Z,28.60
2019-02-15T03:02:35.665Z,28.70
2019-02-15T03:03:46.994Z,28.30
2019-02-15T03:04:35.236Z,28.60
2019-02-15T03:05:35.087Z,28.80
2019-02-15T03:06:35.078Z,28.80
2019-02-15T03:07:35.067Z,28.80
2019-02-15T03:08:35.768Z,28.80
2019-02-15T03:09:35.043Z,28.80
2019-02-15T03:10:35.070Z,28.80
2019-02-15T03:11:35.022Z,28.80
2019-02-15T03:12:35.011Z,28.80
2019-02-15T03:13:34.997Z,28.70
2019-02-15T03:14:34.986Z,28.70
2019-02-15T03:15:34.979Z,28.60
2019-02-15T03:16:34.965Z,28.09
2019-02-15T03:17:34.950Z,28.30
2019-02-15T03:18:34.944Z,28.60
2019-02-15T03:19:34.927Z,28.09
2019-02-15T03:20:34.911Z,28.50
2019-02-15T03:21:34.935Z,28.09
2019-02-15T03:22:34.892Z,28.80
2019-02-15T03:23:34.991Z,28.80
2019-02-15T03:24:35.699Z,29.02
2019-02-15T03:25:34.884Z,28.60
2019-02-15T03:26:34.860Z,28.91
2019-02-15T03:27:34.867Z,28.61
2019-02-15T03:28:34.828Z,28.71
2019-02-15T03:29:34.817Z,28.71
2019-02-15T03:30:34.807Z,28.61
2019-02-15T03:31:34.792Z,28.61
2019-02-15T03:32:34.787Z,28.71
2019-02-15T03:33:34.941Z,28.71
2019-02-15T03:34:47.507Z,28.90
2019-02-15T03:35:34.752Z,28.90
2019-02-15T03:36:34.744Z,28.71
2019-02-15T03:37:34.722Z,29.02
2019-02-15T03:38:34.717Z,28.71
2019-02-15T03:39:34.762Z,28.71
2019-02-15T03:40:34.694Z,28.71
2019-02-15T03:41:34.680Z,28.81
2019-02-15T03:42:34.663Z,28.81
2019-02-15T03:43:34.658Z,28.71
2019-02-15T03:44:34.642Z,28.71
2019-02-15T03:45:34.727Z,28.61
2019-02-15T03:46:35.238Z,28.71
2019-02-15T03:47:34.633Z,28.71
2019-02-15T03:48:35.237Z,28.91
2019-02-15T03:49:34.585Z,28.91
2019-02-15T03:50:34.612Z,28.81
2019-02-15T03:51:34.574Z,28.81
2019-02-15T03:52:34.554Z,28.61
2019-02-15T03:53:34.545Z,28.61
2019-02-15T03:54:34.531Z,28.91
2019-02-15T03:55:34.519Z,28.71
2019-02-15T03:56:34.553Z,28.51
2019-02-15T03:57:34.498Z,28.91
2019-02-15T03:58:34.488Z,28.41
2019-02-15T03:59:34.478Z,29.02
2019-02-15T04:00:34.474Z,29.02
2019-02-15T04:01:34.454Z,28.61
2019-02-15T04:02:34.477Z,28.91
2019-02-15T04:03:34.430Z,29.02
2019-02-15T04:04:34.420Z,29.11
2019-02-15T04:05:45.839Z,28.90
2019-02-15T04:06:34.400Z,28.90
2019-02-15T04:07:34.388Z,28.71
2019-02-15T04:08:34.489Z,28.81
2019-02-15T04:09:35.274Z,28.61
2019-02-15T04:10:34.354Z,28.71
2019-02-15T04:11:34.343Z,28.61
2019-02-15T04:12:34.371Z,28.31
2019-02-15T04:13:34.322Z,28.60
2019-02-15T04:14:34.306Z,28.11
2019-02-15T04:15:34.300Z,27.89
2019-02-15T04:16:34.286Z,28.70
2019-02-15T04:17:34.275Z,28.50
2019-02-15T04:18:34.285Z,28.50
2019-02-15T04:19:34.251Z,28.30
2019-02-15T04:20:34.239Z,28.20
2019-02-15T04:21:34.231Z,28.09
2019-02-15T04:22:34.223Z,28.09
2019-02-15T04:23:34.204Z,28.09
2019-02-15T04:24:34.232Z,28.40
2019-02-15T04:25:34.186Z,28.30
2019-02-15T04:26:34.174Z,28.30
2019-02-15T04:27:34.164Z,28.40
2019-02-15T04:28:34.150Z,28.40
2019-02-15T04:29:34.143Z,28.11
2019-02-15T04:30:34.192Z,28.81
2019-02-15T04:31:34.790Z,28.70
2019-02-15T04:32:34.127Z,27.89
2019-02-15T04:33:34.104Z,27.29
2019-02-15T04:34:34.084Z,27.69
2019-02-15T04:35:34.071Z,27.59
2019-02-15T04:36:47.332Z,27.39
2019-02-15T04:37:34.262Z,27.49
2019-02-15T04:38:34.037Z,27.80
2019-02-15T04:39:34.028Z,27.19
2019-02-15T04:40:34.017Z,27.80
2019-02-15T04:41:34.011Z,27.50
2019-02-15T04:42:34.013Z,27.61
2019-02-15T04:43:34.025Z,27.39
2019-02-15T04:44:42.601Z,27.59
2019-02-15T04:45:35.050Z,27.59
2019-02-15T04:46:33.948Z,27.30
2019-02-15T04:47:33.937Z,27.39
2019-02-15T04:48:33.936Z,27.59
2019-02-15T04:49:33.932Z,27.80
2019-02-15T04:50:33.905Z,27.49
2019-02-15T04:51:33.894Z,27.49
2019-02-15T04:52:33.881Z,27.49
2019-02-15T04:53:33.918Z,27.69
2019-02-15T04:54:34.366Z,28.30
2019-02-15T04:55:33.867Z,29.10
2019-02-15T04:56:33.836Z,28.30
2019-02-15T04:57:33.826Z,27.89
2019-02-15T04:58:33.815Z,28.40
2019-02-15T04:59:33.806Z,27.69
2019-02-15T05:00:34.373Z,27.69
2019-02-15T05:01:33.781Z,27.19
2019-02-15T05:02:33.777Z,27.49
2019-02-15T05:03:33.767Z,27.80
2019-02-15T05:04:33.749Z,27.59
2019-02-15T05:05:33.743Z,27.89
2019-02-15T05:06:33.783Z,27.49
2019-02-15T05:07:49.442Z,27.49
2019-02-15T05:08:33.702Z,27.80
2019-02-15T05:09:33.699Z,27.37
2019-02-15T05:10:33.680Z,27.49
2019-02-15T05:11:33.675Z,27.39
2019-02-15T05:12:33.696Z,27.48
2019-02-15T05:13:33.654Z,26.99
2019-02-15T05:14:33.643Z,27.29
2019-02-15T05:15:33.716Z,27.08
2019-02-15T05:16:34.352Z,27.49
2019-02-15T05:17:33.631Z,27.80
2019-02-15T05:18:33.629Z,27.59
2019-02-15T05:19:33.581Z,27.49
2019-02-15T05:20:33.574Z,28.08
2019-02-15T05:21:33.560Z,27.39
2019-02-15T05:22:33.552Z,27.59
2019-02-15T05:23:33.540Z,27.29
2019-02-15T05:24:33.599Z,27.28
2019-02-15T05:25:33.517Z,26.59
2019-02-15T05:26:33.504Z,27.39
2019-02-15T05:27:33.490Z,26.77
2019-02-15T05:28:33.483Z,27.09
2019-02-15T05:29:33.472Z,26.79
2019-02-15T05:30:33.688Z,27.09
2019-02-15T05:31:33.447Z,27.09
2019-02-15T05:32:33.440Z,26.87
2019-02-15T05:33:35.561Z,27.29
2019-02-15T05:34:33.418Z,27.59
2019-02-15T05:35:33.406Z,26.79
2019-02-15T05:36:33.436Z,27.69
2019-02-15T05:37:33.386Z,27.39
2019-02-15T05:38:44.954Z,26.68
2019-02-15T05:39:33.685Z,26.67
2019-02-15T05:40:33.369Z,26.18
2019-02-15T05:41:33.338Z,26.18
2019-02-15T05:42:33.378Z,26.17
2019-02-15T05:43:33.319Z,26.48
2019-02-15T05:44:33.317Z,26.17
2019-02-15T05:45:33.313Z,26.48
2019-02-15T05:46:33.311Z,26.39
2019-02-15T05:47:33.283Z,26.79
2019-02-15T05:48:33.272Z,26.39
2019-02-15T05:49:33.257Z,26.79
2019-02-15T05:50:33.249Z,26.48
2019-02-15T05:51:33.227Z,26.68
2019-02-15T05:52:33.278Z,26.68
2019-02-15T05:53:33.246Z,26.48
2019-02-15T05:54:34.214Z,26.48
2019-02-15T05:55:33.197Z,26.48
2019-02-15T05:57:23.626Z,26.79
2019-02-15T05:58:23.571Z,26.68
2019-02-15T05:59:23.568Z,26.77
2019-02-15T06:00:23.553Z,26.68
2019-02-15T06:01:23.543Z,26.48
2019-02-15T06:02:23.526Z,26.48
2019-02-15T06:03:23.557Z,27.09
2019-02-15T06:04:23.518Z,26.47
2019-02-15T06:05:23.492Z,26.68
2019-02-15T06:06:23.492Z,26.68
2019-02-15T06:07:23.481Z,26.48
2019-02-15T06:08:23.468Z,26.67
2019-02-15T06:09:23.613Z,26.47
2019-02-15T06:10:23.545Z,26.47
2019-02-15T06:11:24.249Z,27.09
2019-02-15T06:12:23.424Z,27.17
2019-02-15T06:13:23.426Z,26.89
2019-02-15T06:14:23.408Z,27.88
2019-02-15T06:15:23.571Z,27.09
2019-02-15T06:16:23.375Z,27.37
2019-02-15T06:17:23.389Z,28.18
2019-02-15T06:18:23.357Z,28.89
2019-02-15T06:19:23.345Z,29.19
2019-02-15T06:20:23.349Z,29.09
2019-02-15T06:21:23.435Z,28.88
2019-02-15T06:22:23.320Z,29.58
2019-02-15T06:23:23.303Z,29.98
2019-02-15T06:24:23.286Z,30.28
2019-02-15T06:25:23.284Z,30.58
2019-02-15T06:26:23.266Z,30.16
2019-02-15T06:27:30.317Z,30.57
2019-02-15T06:28:23.252Z,30.57
2019-02-15T06:29:23.237Z,30.36
2019-02-15T06:30:23.225Z,30.16
2019-02-15T06:31:23.780Z,30.46
2019-02-15T06:32:23.212Z,30.35
2019-02-15T06:33:23.369Z,30.85
2019-02-15T06:34:23.206Z,30.76
2019-02-15T06:35:23.783Z,30.15
2019-02-15T06:36:23.180Z,30.55
2019-02-15T06:37:23.174Z,30.46
2019-02-15T06:38:23.143Z,30.34
2019-02-15T06:39:23.302Z,30.74
2019-02-15T06:40:23.113Z,30.34
2019-02-15T06:41:23.103Z,30.14
2019-02-15T06:42:23.174Z,30.02
2019-02-15T06:43:23.083Z,30.22
2019-02-15T06:44:23.104Z,30.12
2019-02-15T06:45:25.371Z,30.32
2019-02-15T06:46:23.080Z,29.93
2019-02-15T06:47:23.122Z,29.42
2019-02-15T06:48:23.033Z,28.92
2019-02-15T06:49:23.023Z,29.02
2019-02-15T06:50:23.010Z,28.82
2019-02-15T06:51:23.060Z,27.61
2019-02-15T06:52:22.983Z,27.31
2019-02-15T06:53:22.985Z,27.11
2019-02-15T06:54:23.110Z,27.61
2019-02-15T06:55:23.197Z,29.22
2019-02-15T06:56:23.801Z,29.22
2019-02-15T06:57:26.191Z,28.53
2019-02-15T06:58:33.544Z,28.03
2019-02-15T06:59:22.956Z,27.42
2019-02-15T07:00:23.015Z,27.22
2019-02-15T07:01:22.891Z,27.51
2019-02-15T07:02:22.882Z,27.12
2019-02-15T07:03:22.878Z,28.93
2019-02-15T07:04:22.858Z,29.13
2019-02-15T07:05:22.841Z,29.53
2019-02-15T07:06:22.835Z,29.63
2019-02-15T07:07:22.823Z,28.83
2019-02-15T07:08:22.831Z,29.33
2019-02-15T07:09:22.803Z,28.93
2019-02-15T07:10:22.789Z,28.62
2019-02-15T07:11:22.811Z,28.72
2019-02-15T07:12:22.767Z,28.83
2019-02-15T07:13:22.763Z,29.22
2019-02-15T07:14:22.782Z,30.32
2019-02-15T07:15:22.736Z,29.93
2019-02-15T07:16:22.732Z,30.32
2019-02-15T07:17:22.712Z,29.22
2019-02-15T07:18:22.794Z,28.80
2019-02-15T07:19:23.368Z,29.42
2019-02-15T07:20:23.013Z,29.31
2019-02-15T07:21:22.721Z,29.22
2019-02-15T07:22:22.662Z,31.31
2019-02-15T07:23:22.682Z,30.01
2019-02-15T07:24:22.641Z,30.51
2019-02-15T07:25:22.634Z,30.61
2019-02-15T07:26:22.658Z,30.21
2019-02-15T07:27:22.814Z,29.31
2019-02-15T07:28:22.595Z,29.31
2019-02-15T07:29:34.776Z,29.31
2019-02-15T07:30:22.571Z,29.11
2019-02-15T07:31:22.559Z,30.21
2019-02-15T07:32:22.588Z,31.21
2019-02-15T07:33:22.550Z,30.41
2019-02-15T07:34:22.525Z,30.31
2019-02-15T07:35:22.582Z,29.21
2019-02-15T07:36:22.855Z,28.89
2019-02-15T07:37:22.495Z,29.00
2019-02-15T07:38:22.525Z,29.09
2019-02-15T07:39:22.472Z,29.29
2019-02-15T07:40:22.575Z,29.90
2019-02-15T07:41:22.546Z,31.30
2019-02-15T07:42:23.371Z,31.20
2019-02-15T07:43:22.434Z,30.50
2019-02-15T07:44:22.669Z,30.40
2019-02-15T07:45:22.781Z,29.09
2019-02-15T07:46:22.401Z,28.49
2019-02-15T07:47:22.439Z,28.79
2019-02-15T07:48:22.552Z,28.69
2019-02-15T07:49:26.917Z,29.09
2019-02-15T07:50:23.424Z,29.09
2019-02-15T07:51:22.338Z,28.79
2019-02-15T07:52:22.331Z,28.59
2019-02-15T07:53:22.320Z,27.48
2019-02-15T07:54:23.008Z,27.69
2019-02-15T07:55:22.295Z,27.40
2019-02-15T07:56:22.291Z,27.29
2019-02-15T07:57:22.270Z,27.99
2019-02-15T07:58:22.271Z,29.11
2019-02-15T07:59:22.261Z,29.31
2019-02-15T08:00:34.529Z,28.00
2019-02-15T08:01:22.229Z,27.80
2019-02-15T08:02:22.224Z,27.20
2019-02-15T08:03:22.269Z,27.60
2019-02-15T08:04:22.257Z,26.79
2019-02-15T08:05:23.503Z,27.20
2019-02-15T08:06:22.221Z,27.70
2019-02-15T08:07:22.971Z,28.80
2019-02-15T08:08:22.158Z,30.01
2019-02-15T08:09:22.149Z,29.71
2019-02-15T08:10:22.130Z,29.71
2019-02-15T08:11:22.168Z,29.21
2019-02-15T08:12:22.191Z,29.11
2019-02-15T08:13:22.106Z,28.70
2019-02-15T08:14:22.092Z,28.60
2019-02-15T08:15:22.078Z,29.21
2019-02-15T08:16:22.075Z,30.21
2019-02-15T08:17:22.060Z,30.01
2019-02-15T08:18:22.130Z,30.19
2019-02-15T08:19:22.069Z,30.19
2019-02-15T08:20:22.032Z,29.19
2019-02-15T08:21:22.016Z,28.89
2019-02-15T08:22:22.771Z,29.49
2019-02-15T08:23:22.911Z,29.29
2019-02-15T08:24:22.158Z,29.39
2019-02-15T08:25:21.971Z,30.90
2019-02-15T08:26:22.030Z,31.00
2019-02-15T08:27:22.906Z,30.50
2019-02-15T08:28:21.939Z,30.10
2019-02-15T08:29:22.953Z,29.99
2019-02-15T08:30:22.262Z,29.29
2019-02-15T08:31:34.298Z,28.89
2019-02-15T08:32:21.891Z,28.69
2019-02-15T08:33:21.882Z,29.60
2019-02-15T08:34:21.875Z,30.50
2019-02-15T08:35:21.858Z,31.50
2019-02-15T08:36:21.881Z,30.98
2019-02-15T08:37:21.837Z,30.30
2019-02-15T08:38:21.828Z,30.08
2019-02-15T08:39:21.813Z,29.19
2019-02-15T08:40:21.823Z,28.88
2019-02-15T08:41:21.797Z,29.48
2019-02-15T08:42:21.793Z,30.58
2019-02-15T08:43:21.769Z,30.28
2019-02-15T08:44:21.761Z,31.18
2019-02-15T08:45:21.747Z,30.38
2019-02-15T08:46:21.757Z,30.28
2019-02-15T08:47:21.732Z,29.18
2019-02-15T08:48:21.842Z,29.08
2019-02-15T08:49:24.458Z,28.78
2019-02-15T08:50:22.454Z,28.67
2019-02-15T08:51:21.683Z,28.78
2019-02-15T08:52:22.453Z,29.38
2019-02-15T08:53:22.469Z,29.68
2019-02-15T08:54:21.801Z,28.88
2019-02-15T08:55:21.637Z,28.48
2019-02-15T08:56:21.629Z,27.47
2019-02-15T08:57:21.613Z,27.17
2019-02-15T08:58:21.796Z,27.08
2019-02-15T08:59:21.584Z,27.48
2019-02-15T09:00:21.607Z,28.29
2019-02-15T09:01:21.565Z,27.89
2019-02-15T09:02:34.429Z,27.29
2019-02-15T09:03:22.160Z,27.59
2019-02-15T09:04:21.532Z,26.98
2019-02-15T09:05:21.525Z,26.08
2019-02-15T09:06:21.534Z,26.78
2019-02-15T09:07:21.501Z,26.48
2019-02-15T09:08:21.491Z,25.58
2019-02-15T09:09:21.478Z,26.98
2019-02-15T09:10:21.464Z,27.09
2019-02-15T09:11:21.453Z,27.50
2019-02-15T09:12:21.734Z,26.39
2019-02-15T09:13:22.028Z,26.09
2019-02-15T09:14:22.005Z,25.99
2019-02-15T09:15:22.000Z,25.39
2019-02-15T09:16:21.400Z,24.89
2019-02-15T09:17:21.383Z,25.29
2019-02-15T09:18:21.420Z,26.40
2019-02-15T09:19:21.393Z,26.70
2019-02-15T09:20:21.351Z,26.40
2019-02-15T09:21:21.428Z,26.40
2019-02-15T09:22:21.325Z,26.79
2019-02-15T09:23:21.325Z,26.60
2019-02-15T09:24:21.377Z,26.09
2019-02-15T09:25:21.446Z,26.09
2019-02-15T09:26:21.284Z,27.50
2019-02-15T09:27:21.279Z,26.90
2019-02-15T09:28:21.282Z,28.60
2019-02-15T09:29:21.254Z,28.60
2019-02-15T09:30:21.281Z,28.60
2019-02-15T09:31:21.277Z,28.49
2019-02-15T09:32:21.214Z,27.59
2019-02-15T09:33:34.323Z,27.48
2019-02-15T09:34:21.197Z,26.89
2019-02-15T09:35:21.298Z,27.69
2019-02-15T09:36:21.553Z,28.59
2019-02-15T09:37:21.179Z,28.89
2019-02-15T09:38:21.156Z,29.69
2019-02-15T09:39:21.161Z,28.79
2019-02-15T09:40:21.251Z,29.09
2019-02-15T09:41:21.234Z,28.58
2019-02-15T09:42:22.296Z,28.38
2019-02-15T09:43:21.104Z,27.27
2019-02-15T09:44:21.090Z,27.47
2019-02-15T09:45:21.091Z,28.67
2019-02-15T09:46:21.087Z,29.68
2019-02-15T09:47:21.124Z,29.88
2019-02-15T09:48:21.097Z,29.08
2019-02-15T09:49:22.291Z,29.28
2019-02-15T09:50:21.039Z,28.67
2019-02-15T09:51:21.046Z,28.48
2019-02-15T09:52:21.153Z,27.17
2019-02-15T09:53:21.126Z,27.78
2019-02-15T09:54:20.966Z,29.06
2019-02-15T09:55:20.993Z,29.48
2019-02-15T09:56:20.948Z,29.77
2019-02-15T09:57:21.088Z,28.86
2019-02-15T09:58:21.032Z,28.96
2019-02-15T09:59:21.639Z,28.77
2019-02-15T10:00:20.946Z,28.77
2019-02-15T10:01:20.898Z,28.26
2019-02-15T10:02:20.913Z,27.86
2019-02-15T10:03:20.865Z,29.27
2019-02-15T10:04:34.621Z,29.06
2019-02-15T10:05:21.003Z,29.27
2019-02-15T10:06:20.900Z,28.86
2019-02-15T10:07:20.852Z,29.27
2019-02-15T10:08:20.812Z,28.46
2019-02-15T10:09:21.049Z,28.36
2019-02-15T10:10:21.192Z,28.36
2019-02-15T10:11:20.785Z,28.77
2019-02-15T10:12:20.787Z,29.15
2019-02-15T10:13:20.756Z,29.05
2019-02-15T10:14:21.083Z,29.65
2019-02-15T10:15:20.762Z,29.15
2019-02-15T10:16:28.729Z,29.45
2019-02-15T10:17:21.707Z,28.85
2019-02-15T10:18:20.699Z,29.05
2019-02-15T10:19:22.628Z,29.85
2019-02-15T10:20:20.684Z,29.45
2019-02-15T10:21:20.733Z,28.95
2019-02-15T10:22:20.867Z,28.85
2019-02-15T10:23:20.673Z,29.27
2019-02-15T10:24:21.140Z,29.25
2019-02-15T10:25:20.624Z,29.05
2019-02-15T10:26:20.629Z,29.05
2019-02-15T10:27:20.594Z,28.45
2019-02-15T10:28:20.600Z,27.96
2019-02-15T10:29:20.610Z,27.35
2019-02-15T10:30:20.564Z,27.04
2019-02-15T10:31:20.555Z,27.35
2019-02-15T10:32:20.586Z,28.55
2019-02-15T10:33:20.589Z,28.85
2019-02-15T10:34:20.520Z,28.45
2019-02-15T10:35:33.619Z,28.45
2019-02-15T10:36:20.496Z,29.05
2019-02-15T10:37:20.488Z,28.25
2019-02-15T10:38:20.578Z,28.65
2019-02-15T10:39:20.463Z,29.14
2019-02-15T10:40:20.669Z,29.65
2019-02-15T10:41:20.471Z,29.15
2019-02-15T10:42:20.434Z,30.24
2019-02-15T10:43:20.524Z,29.44
2019-02-15T10:44:20.478Z,29.64
2019-02-15T10:45:20.400Z,29.24
2019-02-15T10:46:20.404Z,29.24
2019-02-15T10:47:24.975Z,28.53
2019-02-15T10:48:20.360Z,28.85
2019-02-15T10:49:20.352Z,29.24
2019-02-15T10:50:20.358Z,29.14
2019-02-15T10:51:01.210Z,28.74
2019-02-15T10:52:00.818Z,29.64
2019-02-15T10:53:00.807Z,29.64
2019-02-15T10:54:00.795Z,29.03
2019-02-15T10:55:00.787Z,29.03
2019-02-15T10:56:00.777Z,28.74
2019-02-15T10:57:00.831Z,28.44
2019-02-15T10:58:00.753Z,27.92
2019-02-15T10:59:03.311Z,28.62
2019-02-15T11:00:00.735Z,29.82
2019-02-15T11:01:00.735Z,29.72
2019-02-15T11:02:00.775Z,29.52
2019-02-15T11:03:00.793Z,29.22
2019-02-15T11:04:00.689Z,29.43
2019-02-15T11:05:01.506Z,28.62
2019-02-15T11:06:00.668Z,29.02
2019-02-15T11:07:00.652Z,27.72
2019-02-15T11:08:00.641Z,28.72
2019-02-15T11:09:01.553Z,29.52
2019-02-15T11:10:01.514Z,28.52
2019-02-15T11:11:01.594Z,28.72
2019-02-15T11:12:00.655Z,28.72
2019-02-15T11:13:00.611Z,28.52
2019-02-15T11:14:00.571Z,28.42
2019-02-15T11:15:00.571Z,27.92
2019-02-15T11:16:00.549Z,27.42
2019-02-15T11:17:00.557Z,26.92
2019-02-15T11:18:00.538Z,27.33
2019-02-15T11:19:00.524Z,27.12
2019-02-15T11:20:00.521Z,26.73
2019-02-15T11:21:07.476Z,27.64
2019-02-15T11:22:17.649Z,27.33
2019-02-15T11:23:17.628Z,26.92
2019-02-15T11:24:17.622Z,27.53
2019-02-15T11:25:17.647Z,27.14
2019-02-15T11:26:24.592Z,27.14
2019-02-15T11:27:18.583Z,26.92
2019-02-15T11:28:17.571Z,27.64
2019-02-15T11:29:17.557Z,29.22
2019-02-15T11:30:17.554Z,28.64
2019-02-15T11:31:17.602Z,28.84
2019-02-15T11:32:17.530Z,29.14
2019-02-15T11:33:18.325Z,29.02
2019-02-15T11:34:17.506Z,28.72
2019-02-15T11:35:17.497Z,28.33
2019-02-15T11:36:17.501Z,28.74
2019-02-15T11:37:17.640Z,28.74
2019-02-15T11:38:17.466Z,29.64
2019-02-15T11:39:17.525Z,29.34
2019-02-15T11:40:18.416Z,29.14
2019-02-15T11:41:17.449Z,29.14
2019-02-15T11:42:17.423Z,28.53
2019-02-15T11:43:17.418Z,28.14
2019-02-15T11:44:17.587Z,28.22
2019-02-15T11:45:17.392Z,29.03
2019-02-15T11:46:17.371Z,29.14
2019-02-15T11:47:17.363Z,29.22
2019-02-15T11:48:17.388Z,28.94
2019-02-15T11:49:17.338Z,28.94
2019-02-15T11:50:17.332Z,28.74
2019-02-15T11:51:17.831Z,27.33
2019-02-15T11:52:24.296Z,26.93
2019-02-15T11:53:17.295Z,27.14
2019-02-15T11:54:23.417Z,28.53
2019-02-15T11:55:18.274Z,29.14
2019-02-15T11:56:17.261Z,29.24
2019-02-15T11:57:17.254Z,28.53
2019-02-15T11:58:17.245Z,27.64
2019-02-15T11:59:17.230Z,27.53
2019-02-15T12:00:19.853Z,26.73
2019-02-15T12:01:17.221Z,26.33
2019-02-15T12:02:17.195Z,26.23
2019-02-15T12:03:17.193Z,26.43
2019-02-15T12:04:17.175Z,26.64
2019-02-15T12:05:17.292Z,26.25
2019-02-15T12:06:17.228Z,25.33
2019-02-15T12:07:17.854Z,24.73
2019-02-15T12:08:17.161Z,25.34
2019-02-15T12:09:17.125Z,24.95
2019-02-15T12:10:17.109Z,24.54
2019-02-15T12:11:17.140Z,25.14
2019-02-15T12:12:17.160Z,24.74
2019-02-15T12:13:17.076Z,24.84
2019-02-15T12:14:17.064Z,24.54
2019-02-15T12:15:17.062Z,24.15
2019-02-15T12:16:17.049Z,23.85
2019-02-15T12:17:17.077Z,23.94
2019-02-15T12:18:17.035Z,24.14
2019-02-15T12:19:17.013Z,24.84
2019-02-15T12:20:17.008Z,24.24
2019-02-15T12:21:16.992Z,26.04
2019-02-15T12:22:16.985Z,26.56
2019-02-15T12:23:29.528Z,27.26
2019-02-15T12:24:16.958Z,27.16
2019-02-15T12:25:16.951Z,26.84
2019-02-15T12:26:16.937Z,26.54
2019-02-15T12:27:16.991Z,26.54
2019-02-15T12:28:16.913Z,27.45
2019-02-15T12:29:16.985Z,27.35
2019-02-15T12:30:20.648Z,28.26
2019-02-15T12:31:22.660Z,28.65
2019-02-15T12:32:22.640Z,29.05
2019-02-15T12:33:22.614Z,27.95
2019-02-15T12:34:22.618Z,27.95
2019-02-15T12:35:22.613Z,28.35
2019-02-15T12:36:22.596Z,27.55
2019-02-15T12:37:22.517Z,27.65
2019-02-15T12:38:22.497Z,27.25
2019-02-15T12:39:22.565Z,27.35
2019-02-15T12:40:22.474Z,27.44
2019-02-15T12:41:22.995Z,27.44
2019-02-15T12:42:22.963Z,27.23
2019-02-15T12:43:22.342Z,27.44
2019-02-15T12:44:22.970Z,27.33
2019-02-15T12:45:22.280Z,27.23
2019-02-15T12:46:22.258Z,27.53
2019-02-15T12:47:22.227Z,27.03
2019-02-15T12:48:25.419Z,27.14
2019-02-15T12:49:25.388Z,27.14
2019-02-15T12:50:25.358Z,27.53
2019-02-15T12:51:25.324Z,26.52
2019-02-15T12:52:25.331Z,26.72
2019-02-15T12:53:25.255Z,26.72